sensor_id;sensor_type;location;lat;lon;timestamp;P1;durP1;ratioP1;P2;durP2;ratioP2
30770;SDS011;17502;51.698;-0.292;2022-09-09T00:00:14;10.80;;;2.10;;
30770;SDS011;17502;51.698;-0.292;2022-09-09T00:02:41;3.13;;;1.10;;
30770;SDS011;17502;51.698;-0.292;2022-09-09T00:07:45;3.20;;;1.20;;
30770;SDS011;17502;51.698;-0.292;2022-09-09T00:15:24;4.00;;;2.03;;
30770;SDS011;17502;51.698;-0.292;2022-09-09T00:21:02;1.95;;;1.23;;
30770;SDS011;17502;51.698;-0.292;2022-09-09T00:23:28;5.60;;;1.98;;
30770;SDS011;17502;51.698;-0.292;2022-09-09T00:29:03;10.73;;;1.35;;
30770;SDS011;17502;51.698;-0.292;2022-09-09T00:31:27;2.28;;;1.23;;
30770;SDS011;17502;51.698;-0.292;2022-09-09T00:33:53;11.73;;;2.50;;
30770;SDS011;17502;51.698;-0.292;2022-09-09T00:36:21;5.38;;;1.67;;
30770;SDS011;17502;51.698;-0.292;2022-09-09T00:38:56;6.97;;;1.70;;
30770;SDS011;17502;51.698;-0.292;2022-09-09T00:44:25;9.52;;;2.50;;
30770;SDS011;17502;51.698;-0.292;2022-09-09T00:49:25;9.65;;;1.70;;
30770;SDS011;17502;51.698;-0.292;2022-09-09T00:54:30;10.13;;;2.17;;
30770;SDS011;17502;51.698;-0.292;2022-09-09T01:02:01;9.68;;;1.95;;
30770;SDS011;17502;51.698;-0.292;2022-09-09T01:04:29;7.25;;;1.70;;
30770;SDS011;17502;51.698;-0.292;2022-09-09T01:07:32;7.40;;;2.80;;
30770;SDS011;17502;51.698;-0.292;2022-09-09T01:10:00;2.78;;;1.48;;
30770;SDS011;17502;51.698;-0.292;2022-09-09T01:12:47;6.18;;;1.77;;
30770;SDS011;17502;51.698;-0.292;2022-09-09T01:15:17;13.68;;;2.13;;
30770;SDS011;17502;51.698;-0.292;2022-09-09T01:17:53;4.18;;;1.92;;
30770;SDS011;17502;51.698;-0.292;2022-09-09T01:20:24;14.43;;;2.75;;
30770;SDS011;17502;51.698;-0.292;2022-09-09T01:28:14;2.95;;;1.75;;
30770;SDS011;17502;51.698;-0.292;2022-09-09T01:30:41;16.17;;;2.45;;
30770;SDS011;17502;51.698;-0.292;2022-09-09T01:33:10;12.63;;;1.85;;
30770;SDS011;17502;51.698;-0.292;2022-09-09T01:38:13;6.63;;;1.27;;
30770;SDS011;17502;51.698;-0.292;2022-09-09T01:40:40;3.63;;;1.35;;
30770;SDS011;17502;51.698;-0.292;2022-09-09T01:43:06;4.28;;;2.13;;
30770;SDS011;17502;51.698;-0.292;2022-09-09T01:45:33;8.80;;;1.55;;
30770;SDS011;17502;51.698;-0.292;2022-09-09T01:47:59;4.18;;;1.40;;
30770;SDS011;17502;51.698;-0.292;2022-09-09T01:50:27;5.70;;;1.90;;
30770;SDS011;17502;51.698;-0.292;2022-09-09T01:52:54;8.15;;;1.70;;
30770;SDS011;17502;51.698;-0.292;2022-09-09T01:55:31;5.50;;;1.55;;
30770;SDS011;17502;51.698;-0.292;2022-09-09T02:00:37;10.05;;;1.45;;
30770;SDS011;17502;51.698;-0.292;2022-09-09T02:05:37;3.33;;;1.20;;
30770;SDS011;17502;51.698;-0.292;2022-09-09T02:08:08;9.30;;;1.48;;
30770;SDS011;17502;51.698;-0.292;2022-09-09T02:10:37;2.38;;;1.48;;
30770;SDS011;17502;51.698;-0.292;2022-09-09T02:13:13;4.57;;;1.70;;
30770;SDS011;17502;51.698;-0.292;2022-09-09T02:18:30;4.65;;;1.50;;
30770;SDS011;17502;51.698;-0.292;2022-09-09T02:20:58;10.10;;;2.13;;
30770;SDS011;17502;51.698;-0.292;2022-09-09T02:23:25;10.45;;;1.95;;
30770;SDS011;17502;51.698;-0.292;2022-09-09T02:25:51;8.77;;;1.85;;
30770;SDS011;17502;51.698;-0.292;2022-09-09T02:28:18;11.77;;;1.85;;
30770;SDS011;17502;51.698;-0.292;2022-09-09T02:30:46;6.45;;;1.67;;
30770;SDS011;17502;51.698;-0.292;2022-09-09T02:33:15;13.32;;;2.03;;
30770;SDS011;17502;51.698;-0.292;2022-09-09T02:35:41;7.97;;;3.05;;
30770;SDS011;17502;51.698;-0.292;2022-09-09T02:38:10;5.45;;;1.83;;
30770;SDS011;17502;51.698;-0.292;2022-09-09T02:40:38;12.38;;;2.83;;
30770;SDS011;17502;51.698;-0.292;2022-09-09T02:43:04;5.53;;;2.03;;
30770;SDS011;17502;51.698;-0.292;2022-09-09T02:45:42;10.43;;;2.35;;
30770;SDS011;17502;51.698;-0.292;2022-09-09T02:50:52;9.15;;;1.88;;
30770;SDS011;17502;51.698;-0.292;2022-09-09T02:53:23;6.57;;;2.20;;
30770;SDS011;17502;51.698;-0.292;2022-09-09T02:58:22;7.47;;;2.08;;
30770;SDS011;17502;51.698;-0.292;2022-09-09T03:00:50;9.05;;;2.38;;
30770;SDS011;17502;51.698;-0.292;2022-09-09T03:03:16;7.43;;;2.05;;
30770;SDS011;17502;51.698;-0.292;2022-09-09T03:05:43;13.18;;;2.83;;
30770;SDS011;17502;51.698;-0.292;2022-09-09T03:08:10;4.53;;;2.63;;
30770;SDS011;17502;51.698;-0.292;2022-09-09T03:10:36;13.02;;;4.00;;
30770;SDS011;17502;51.698;-0.292;2022-09-09T03:13:02;9.20;;;2.40;;
30770;SDS011;17502;51.698;-0.292;2022-09-09T03:15:32;9.43;;;2.35;;
30770;SDS011;17502;51.698;-0.292;2022-09-09T03:17:58;10.43;;;2.65;;
30770;SDS011;17502;51.698;-0.292;2022-09-09T03:20:25;7.68;;;2.15;;
30770;SDS011;17502;51.698;-0.292;2022-09-09T03:22:52;6.15;;;1.80;;
30770;SDS011;17502;51.698;-0.292;2022-09-09T03:25:18;4.60;;;1.88;;
30770;SDS011;17502;51.698;-0.292;2022-09-09T03:27:44;5.38;;;1.83;;
30770;SDS011;17502;51.698;-0.292;2022-09-09T03:30:10;10.00;;;1.73;;
30770;SDS011;17502;51.698;-0.292;2022-09-09T03:32:37;14.75;;;2.78;;
30770;SDS011;17502;51.698;-0.292;2022-09-09T03:35:03;10.13;;;2.33;;
30770;SDS011;17502;51.698;-0.292;2022-09-09T03:37:29;2.97;;;1.73;;
30770;SDS011;17502;51.698;-0.292;2022-09-09T03:39:56;5.72;;;2.00;;
30770;SDS011;17502;51.698;-0.292;2022-09-09T03:42:22;14.40;;;1.90;;
30770;SDS011;17502;51.698;-0.292;2022-09-09T03:44:48;8.73;;;1.13;;
30770;SDS011;17502;51.698;-0.292;2022-09-09T03:47:17;2.53;;;1.23;;
30770;SDS011;17502;51.698;-0.292;2022-09-09T03:49:44;2.38;;;1.50;;
30770;SDS011;17502;51.698;-0.292;2022-09-09T03:52:10;2.35;;;1.20;;
30770;SDS011;17502;51.698;-0.292;2022-09-09T03:54:36;2.60;;;1.20;;
30770;SDS011;17502;51.698;-0.292;2022-09-09T03:57:02;17.25;;;1.30;;
30770;SDS011;17502;51.698;-0.292;2022-09-09T03:59:29;3.17;;;1.65;;
30770;SDS011;17502;51.698;-0.292;2022-09-09T04:01:55;5.10;;;1.40;;
30770;SDS011;17502;51.698;-0.292;2022-09-09T04:04:23;4.57;;;1.60;;
30770;SDS011;17502;51.698;-0.292;2022-09-09T04:06:51;9.10;;;1.58;;
30770;SDS011;17502;51.698;-0.292;2022-09-09T04:09:17;2.53;;;1.52;;
30770;SDS011;17502;51.698;-0.292;2022-09-09T04:11:43;3.42;;;1.85;;
30770;SDS011;17502;51.698;-0.292;2022-09-09T04:14:10;6.88;;;1.80;;
30770;SDS011;17502;51.698;-0.292;2022-09-09T04:16:36;7.03;;;2.70;;
30770;SDS011;17502;51.698;-0.292;2022-09-09T04:19:02;2.83;;;1.65;;
30770;SDS011;17502;51.698;-0.292;2022-09-09T04:21:29;9.35;;;2.63;;
30770;SDS011;17502;51.698;-0.292;2022-09-09T04:23:55;3.40;;;2.05;;
30770;SDS011;17502;51.698;-0.292;2022-09-09T04:26:21;9.65;;;3.25;;
30770;SDS011;17502;51.698;-0.292;2022-09-09T04:28:47;7.45;;;2.38;;
30770;SDS011;17502;51.698;-0.292;2022-09-09T04:31:17;16.63;;;2.92;;
30770;SDS011;17502;51.698;-0.292;2022-09-09T04:33:45;15.30;;;3.03;;
30770;SDS011;17502;51.698;-0.292;2022-09-09T04:36:11;14.63;;;3.28;;
30770;SDS011;17502;51.698;-0.292;2022-09-09T04:38:37;7.63;;;2.63;;
30770;SDS011;17502;51.698;-0.292;2022-09-09T04:41:04;14.15;;;2.80;;
30770;SDS011;17502;51.698;-0.292;2022-09-09T04:43:30;14.20;;;4.05;;
30770;SDS011;17502;51.698;-0.292;2022-09-09T04:45:57;8.82;;;3.10;;
30770;SDS011;17502;51.698;-0.292;2022-09-09T04:48:24;9.00;;;3.83;;
30770;SDS011;17502;51.698;-0.292;2022-09-09T04:50:54;18.63;;;4.68;;
30770;SDS011;17502;51.698;-0.292;2022-09-09T04:53:20;7.88;;;3.47;;
30770;SDS011;17502;51.698;-0.292;2022-09-09T04:55:47;8.90;;;3.67;;
30770;SDS011;17502;51.698;-0.292;2022-09-09T04:58:14;9.32;;;4.40;;
30770;SDS011;17502;51.698;-0.292;2022-09-09T05:00:40;5.82;;;2.92;;
30770;SDS011;17502;51.698;-0.292;2022-09-09T05:03:07;21.73;;;4.40;;
30770;SDS011;17502;51.698;-0.292;2022-09-09T05:05:34;14.65;;;4.03;;
30770;SDS011;17502;51.698;-0.292;2022-09-09T05:08:01;11.13;;;4.30;;
30770;SDS011;17502;51.698;-0.292;2022-09-09T05:10:28;10.07;;;5.13;;
30770;SDS011;17502;51.698;-0.292;2022-09-09T05:12:54;14.88;;;5.32;;
30770;SDS011;17502;51.698;-0.292;2022-09-09T05:15:21;13.05;;;4.60;;
30770;SDS011;17502;51.698;-0.292;2022-09-09T05:17:47;15.77;;;5.72;;
30770;SDS011;17502;51.698;-0.292;2022-09-09T05:20:13;19.50;;;5.47;;
30770;SDS011;17502;51.698;-0.292;2022-09-09T05:22:39;13.80;;;4.82;;
30770;SDS011;17502;51.698;-0.292;2022-09-09T05:25:05;13.13;;;5.75;;
30770;SDS011;17502;51.698;-0.292;2022-09-09T05:27:33;13.55;;;5.43;;
30770;SDS011;17502;51.698;-0.292;2022-09-09T05:29:59;8.43;;;4.20;;
30770;SDS011;17502;51.698;-0.292;2022-09-09T05:32:25;19.30;;;5.50;;
30770;SDS011;17502;51.698;-0.292;2022-09-09T05:34:52;14.02;;;4.20;;
30770;SDS011;17502;51.698;-0.292;2022-09-09T05:37:18;16.10;;;3.80;;
30770;SDS011;17502;51.698;-0.292;2022-09-09T05:39:44;8.55;;;4.05;;
30770;SDS011;17502;51.698;-0.292;2022-09-09T05:42:10;10.65;;;4.55;;
30770;SDS011;17502;51.698;-0.292;2022-09-09T05:44:36;6.97;;;3.63;;
30770;SDS011;17502;51.698;-0.292;2022-09-09T05:47:02;12.50;;;4.30;;
30770;SDS011;17502;51.698;-0.292;2022-09-09T05:49:28;12.65;;;4.03;;
30770;SDS011;17502;51.698;-0.292;2022-09-09T05:51:54;12.05;;;3.30;;
30770;SDS011;17502;51.698;-0.292;2022-09-09T05:54:20;7.95;;;3.25;;
30770;SDS011;17502;51.698;-0.292;2022-09-09T05:56:46;7.07;;;2.78;;
30770;SDS011;17502;51.698;-0.292;2022-09-09T05:59:15;10.52;;;3.47;;
30770;SDS011;17502;51.698;-0.292;2022-09-09T06:01:41;7.60;;;3.00;;
30770;SDS011;17502;51.698;-0.292;2022-09-09T06:04:07;15.75;;;4.22;;
30770;SDS011;17502;51.698;-0.292;2022-09-09T06:06:34;13.40;;;3.67;;
30770;SDS011;17502;51.698;-0.292;2022-09-09T06:09:01;6.80;;;2.90;;
30770;SDS011;17502;51.698;-0.292;2022-09-09T06:11:29;9.40;;;3.20;;
30770;SDS011;17502;51.698;-0.292;2022-09-09T06:14:00;3.97;;;2.15;;
30770;SDS011;17502;51.698;-0.292;2022-09-09T06:16:27;11.38;;;3.42;;
30770;SDS011;17502;51.698;-0.292;2022-09-09T06:18:54;14.60;;;3.10;;
30770;SDS011;17502;51.698;-0.292;2022-09-09T06:21:24;4.70;;;2.22;;
30770;SDS011;17502;51.698;-0.292;2022-09-09T06:23:50;9.27;;;2.60;;
30770;SDS011;17502;51.698;-0.292;2022-09-09T06:26:19;7.90;;;3.08;;
30770;SDS011;17502;51.698;-0.292;2022-09-09T06:28:45;9.27;;;2.60;;
30770;SDS011;17502;51.698;-0.292;2022-09-09T06:31:12;11.45;;;3.33;;
30770;SDS011;17502;51.698;-0.292;2022-09-09T06:33:40;11.82;;;2.97;;
30770;SDS011;17502;51.698;-0.292;2022-09-09T06:36:07;9.10;;;3.00;;
30770;SDS011;17502;51.698;-0.292;2022-09-09T06:38:36;13.70;;;2.67;;
30770;SDS011;17502;51.698;-0.292;2022-09-09T06:41:02;16.38;;;4.20;;
30770;SDS011;17502;51.698;-0.292;2022-09-09T06:43:28;10.90;;;4.57;;
30770;SDS011;17502;51.698;-0.292;2022-09-09T06:46:01;7.05;;;2.92;;
30770;SDS011;17502;51.698;-0.292;2022-09-09T06:48:28;12.15;;;2.28;;
30770;SDS011;17502;51.698;-0.292;2022-09-09T06:53:33;8.65;;;2.67;;
30770;SDS011;17502;51.698;-0.292;2022-09-09T06:56:01;8.77;;;3.85;;
30770;SDS011;17502;51.698;-0.292;2022-09-09T06:58:28;17.35;;;2.90;;
30770;SDS011;17502;51.698;-0.292;2022-09-09T07:01:06;9.90;;;2.97;;
30770;SDS011;17502;51.698;-0.292;2022-09-09T07:03:33;10.43;;;3.03;;
30770;SDS011;17502;51.698;-0.292;2022-09-09T07:05:59;6.78;;;2.80;;
30770;SDS011;17502;51.698;-0.292;2022-09-09T07:08:26;7.00;;;3.65;;
30770;SDS011;17502;51.698;-0.292;2022-09-09T07:10:53;6.78;;;2.33;;
30770;SDS011;17502;51.698;-0.292;2022-09-09T07:13:23;10.35;;;3.67;;
30770;SDS011;17502;51.698;-0.292;2022-09-09T07:15:50;8.13;;;2.58;;
30770;SDS011;17502;51.698;-0.292;2022-09-09T07:18:16;11.25;;;2.33;;
30770;SDS011;17502;51.698;-0.292;2022-09-09T07:20:43;8.73;;;3.33;;
30770;SDS011;17502;51.698;-0.292;2022-09-09T07:23:09;8.95;;;3.13;;
30770;SDS011;17502;51.698;-0.292;2022-09-09T07:25:35;12.95;;;3.17;;
30770;SDS011;17502;51.698;-0.292;2022-09-09T07:28:01;12.70;;;3.63;;
30770;SDS011;17502;51.698;-0.292;2022-09-09T07:30:28;11.10;;;2.83;;
30770;SDS011;17502;51.698;-0.292;2022-09-09T07:32:54;17.55;;;3.25;;
30770;SDS011;17502;51.698;-0.292;2022-09-09T07:35:21;8.18;;;3.67;;
30770;SDS011;17502;51.698;-0.292;2022-09-09T07:37:48;5.13;;;2.47;;
30770;SDS011;17502;51.698;-0.292;2022-09-09T07:40:14;12.80;;;3.28;;
30770;SDS011;17502;51.698;-0.292;2022-09-09T07:42:40;12.90;;;2.85;;
30770;SDS011;17502;51.698;-0.292;2022-09-09T07:45:06;10.88;;;3.67;;
30770;SDS011;17502;51.698;-0.292;2022-09-09T07:47:32;9.20;;;3.45;;
30770;SDS011;17502;51.698;-0.292;2022-09-09T07:49:58;8.75;;;3.80;;
30770;SDS011;17502;51.698;-0.292;2022-09-09T07:52:24;7.47;;;2.95;;
30770;SDS011;17502;51.698;-0.292;2022-09-09T07:54:50;8.60;;;3.47;;
30770;SDS011;17502;51.698;-0.292;2022-09-09T07:57:17;6.65;;;2.72;;
30770;SDS011;17502;51.698;-0.292;2022-09-09T07:59:43;5.25;;;2.85;;
30770;SDS011;17502;51.698;-0.292;2022-09-09T08:02:10;4.93;;;2.72;;
30770;SDS011;17502;51.698;-0.292;2022-09-09T08:04:36;4.55;;;2.65;;
30770;SDS011;17502;51.698;-0.292;2022-09-09T08:07:02;5.07;;;2.60;;
30770;SDS011;17502;51.698;-0.292;2022-09-09T08:09:28;9.38;;;2.53;;
30770;SDS011;17502;51.698;-0.292;2022-09-09T08:11:55;6.70;;;2.67;;
30770;SDS011;17502;51.698;-0.292;2022-09-09T08:14:21;4.55;;;2.40;;
30770;SDS011;17502;51.698;-0.292;2022-09-09T08:16:48;5.40;;;1.98;;
30770;SDS011;17502;51.698;-0.292;2022-09-09T08:19:15;4.85;;;2.28;;
30770;SDS011;17502;51.698;-0.292;2022-09-09T08:21:41;5.22;;;3.20;;
30770;SDS011;17502;51.698;-0.292;2022-09-09T08:24:08;12.95;;;3.00;;
30770;SDS011;17502;51.698;-0.292;2022-09-09T08:26:39;4.78;;;2.15;;
30770;SDS011;17502;51.698;-0.292;2022-09-09T08:29:07;11.65;;;3.08;;
30770;SDS011;17502;51.698;-0.292;2022-09-09T08:31:34;6.35;;;2.30;;
30770;SDS011;17502;51.698;-0.292;2022-09-09T08:34:01;13.98;;;4.47;;
30770;SDS011;17502;51.698;-0.292;2022-09-09T08:36:31;6.80;;;2.30;;
30770;SDS011;17502;51.698;-0.292;2022-09-09T08:39:02;7.35;;;2.58;;
30770;SDS011;17502;51.698;-0.292;2022-09-09T08:41:48;11.73;;;3.53;;
30770;SDS011;17502;51.698;-0.292;2022-09-09T08:46:54;7.78;;;2.85;;
30770;SDS011;17502;51.698;-0.292;2022-09-09T08:52:13;9.25;;;3.28;;
30770;SDS011;17502;51.698;-0.292;2022-09-09T08:54:43;12.48;;;2.72;;
30770;SDS011;17502;51.698;-0.292;2022-09-09T08:57:11;6.63;;;2.70;;
30770;SDS011;17502;51.698;-0.292;2022-09-09T08:59:39;8.40;;;2.78;;
30770;SDS011;17502;51.698;-0.292;2022-09-09T09:02:21;16.58;;;5.50;;
30770;SDS011;17502;51.698;-0.292;2022-09-09T09:05:05;7.30;;;2.95;;
30770;SDS011;17502;51.698;-0.292;2022-09-09T09:07:41;31.85;;;4.13;;
30770;SDS011;17502;51.698;-0.292;2022-09-09T09:12:38;8.68;;;3.30;;
30770;SDS011;17502;51.698;-0.292;2022-09-09T09:15:11;12.60;;;3.60;;
30770;SDS011;17502;51.698;-0.292;2022-09-09T09:17:41;10.73;;;3.55;;
30770;SDS011;17502;51.698;-0.292;2022-09-09T09:20:11;11.18;;;3.95;;
30770;SDS011;17502;51.698;-0.292;2022-09-09T09:22:49;6.53;;;2.58;;
30770;SDS011;17502;51.698;-0.292;2022-09-09T09:25:31;6.80;;;3.25;;
30770;SDS011;17502;51.698;-0.292;2022-09-09T09:28:02;13.82;;;3.67;;
30770;SDS011;17502;51.698;-0.292;2022-09-09T09:30:34;17.77;;;5.13;;
30770;SDS011;17502;51.698;-0.292;2022-09-09T09:33:02;20.77;;;7.63;;
30770;SDS011;17502;51.698;-0.292;2022-09-09T09:35:29;25.45;;;7.07;;
30770;SDS011;17502;51.698;-0.292;2022-09-09T09:37:55;19.55;;;7.07;;
30770;SDS011;17502;51.698;-0.292;2022-09-09T09:40:21;20.20;;;5.85;;
30770;SDS011;17502;51.698;-0.292;2022-09-09T09:42:55;11.65;;;5.43;;
30770;SDS011;17502;51.698;-0.292;2022-09-09T09:45:31;9.80;;;4.10;;
30770;SDS011;17502;51.698;-0.292;2022-09-09T09:48:03;10.32;;;4.88;;
30770;SDS011;17502;51.698;-0.292;2022-09-09T09:50:30;9.73;;;4.20;;
30770;SDS011;17502;51.698;-0.292;2022-09-09T09:53:03;9.75;;;5.20;;
30770;SDS011;17502;51.698;-0.292;2022-09-09T09:55:30;11.50;;;4.57;;
30770;SDS011;17502;51.698;-0.292;2022-09-09T09:58:01;9.48;;;4.28;;
30770;SDS011;17502;51.698;-0.292;2022-09-09T10:00:27;17.13;;;5.03;;
30770;SDS011;17502;51.698;-0.292;2022-09-09T10:02:53;12.18;;;4.18;;
30770;SDS011;17502;51.698;-0.292;2022-09-09T10:05:25;9.05;;;4.68;;
30770;SDS011;17502;51.698;-0.292;2022-09-09T10:10:56;19.17;;;4.57;;
30770;SDS011;17502;51.698;-0.292;2022-09-09T10:13:29;10.07;;;4.40;;
30770;SDS011;17502;51.698;-0.292;2022-09-09T10:29:01;9.73;;;3.92;;
30770;SDS011;17502;51.698;-0.292;2022-09-09T10:36:43;8.80;;;3.75;;
30770;SDS011;17502;51.698;-0.292;2022-09-09T10:42:27;6.38;;;3.08;;
30770;SDS011;17502;51.698;-0.292;2022-09-09T10:44:40;6.97;;;3.75;;
30770;SDS011;17502;51.698;-0.292;2022-09-09T10:54:57;7.53;;;3.20;;
30770;SDS011;17502;51.698;-0.292;2022-09-09T10:59:57;11.15;;;3.08;;
30770;SDS011;17502;51.698;-0.292;2022-09-09T11:02:32;8.07;;;3.70;;
30770;SDS011;17502;51.698;-0.292;2022-09-09T11:05:03;11.68;;;4.13;;
30770;SDS011;17502;51.698;-0.292;2022-09-09T11:07:36;11.32;;;3.70;;
30770;SDS011;17502;51.698;-0.292;2022-09-09T11:12:53;8.77;;;3.85;;
30770;SDS011;17502;51.698;-0.292;2022-09-09T11:15:31;10.45;;;3.78;;
30770;SDS011;17502;51.698;-0.292;2022-09-09T11:18:01;10.55;;;4.45;;
30770;SDS011;17502;51.698;-0.292;2022-09-09T11:20:29;17.35;;;5.68;;
30770;SDS011;17502;51.698;-0.292;2022-09-09T11:23:13;12.43;;;5.97;;
30770;SDS011;17502;51.698;-0.292;2022-09-09T11:25:48;11.77;;;5.30;;
30770;SDS011;17502;51.698;-0.292;2022-09-09T11:38:42;9.25;;;4.10;;
30770;SDS011;17502;51.698;-0.292;2022-09-09T11:41:10;11.05;;;4.82;;
30770;SDS011;17502;51.698;-0.292;2022-09-09T11:43:48;9.80;;;4.72;;
30770;SDS011;17502;51.698;-0.292;2022-09-09T11:46:17;11.27;;;4.50;;
30770;SDS011;17502;51.698;-0.292;2022-09-09T11:48:45;10.30;;;4.65;;
30770;SDS011;17502;51.698;-0.292;2022-09-09T11:51:13;9.75;;;4.68;;
30770;SDS011;17502;51.698;-0.292;2022-09-09T11:56:25;11.52;;;5.00;;
30770;SDS011;17502;51.698;-0.292;2022-09-09T11:59:00;12.75;;;4.43;;
30770;SDS011;17502;51.698;-0.292;2022-09-09T12:01:38;13.45;;;4.57;;
30770;SDS011;17502;51.698;-0.292;2022-09-09T12:04:11;14.32;;;4.55;;
30770;SDS011;17502;51.698;-0.292;2022-09-09T12:09:21;7.13;;;3.50;;
30770;SDS011;17502;51.698;-0.292;2022-09-09T12:11:48;18.58;;;3.47;;
30770;SDS011;17502;51.698;-0.292;2022-09-09T12:14:35;8.00;;;3.22;;
30770;SDS011;17502;51.698;-0.292;2022-09-09T12:19:40;5.50;;;2.90;;
30770;SDS011;17502;51.698;-0.292;2022-09-09T12:22:20;6.65;;;2.88;;
30770;SDS011;17502;51.698;-0.292;2022-09-09T12:27:23;5.55;;;3.28;;
30770;SDS011;17502;51.698;-0.292;2022-09-09T12:29:53;6.03;;;3.08;;
30770;SDS011;17502;51.698;-0.292;2022-09-09T12:32:24;5.20;;;2.85;;
30770;SDS011;17502;51.698;-0.292;2022-09-09T12:34:59;7.03;;;2.63;;
30770;SDS011;17502;51.698;-0.292;2022-09-09T12:37:34;10.98;;;2.85;;
30770;SDS011;17502;51.698;-0.292;2022-09-09T12:40:02;7.43;;;2.78;;
30770;SDS011;17502;51.698;-0.292;2022-09-09T12:42:29;9.70;;;2.72;;
30770;SDS011;17502;51.698;-0.292;2022-09-09T12:45:02;3.83;;;2.00;;
30770;SDS011;17502;51.698;-0.292;2022-09-09T12:49:57;3.95;;;2.22;;
30770;SDS011;17502;51.698;-0.292;2022-09-09T12:52:29;4.38;;;2.47;;
30770;SDS011;17502;51.698;-0.292;2022-09-09T12:54:58;3.55;;;2.33;;
30770;SDS011;17502;51.698;-0.292;2022-09-09T12:57:25;4.57;;;2.60;;
30770;SDS011;17502;51.698;-0.292;2022-09-09T12:59:51;5.28;;;3.15;;
30770;SDS011;17502;51.698;-0.292;2022-09-09T13:02:19;4.72;;;3.00;;
30770;SDS011;17502;51.698;-0.292;2022-09-09T13:04:45;7.82;;;2.22;;
30770;SDS011;17502;51.698;-0.292;2022-09-09T13:07:12;7.68;;;2.42;;
30770;SDS011;17502;51.698;-0.292;2022-09-09T13:09:38;3.63;;;2.17;;
30770;SDS011;17502;51.698;-0.292;2022-09-09T13:12:05;3.63;;;1.83;;
30770;SDS011;17502;51.698;-0.292;2022-09-09T13:14:34;5.03;;;1.95;;
30770;SDS011;17502;51.698;-0.292;2022-09-09T13:17:03;5.03;;;1.40;;
30770;SDS011;17502;51.698;-0.292;2022-09-09T13:19:31;9.80;;;1.63;;
30770;SDS011;17502;51.698;-0.292;2022-09-09T13:21:58;5.78;;;1.58;;
30770;SDS011;17502;51.698;-0.292;2022-09-09T13:24:27;4.13;;;1.80;;
30770;SDS011;17502;51.698;-0.292;2022-09-09T13:26:58;2.97;;;1.85;;
30770;SDS011;17502;51.698;-0.292;2022-09-09T13:29:26;4.60;;;1.38;;
30770;SDS011;17502;51.698;-0.292;2022-09-09T13:31:52;7.65;;;2.88;;
30770;SDS011;17502;51.698;-0.292;2022-09-09T13:34:30;3.60;;;1.27;;
30770;SDS011;17502;51.698;-0.292;2022-09-09T13:37:04;3.67;;;2.03;;
30770;SDS011;17502;51.698;-0.292;2022-09-09T13:39:32;1.70;;;1.20;;
30770;SDS011;17502;51.698;-0.292;2022-09-09T13:41:59;1.70;;;1.25;;
30770;SDS011;17502;51.698;-0.292;2022-09-09T13:44:31;2.15;;;1.25;;
30770;SDS011;17502;51.698;-0.292;2022-09-09T13:47:00;1.80;;;1.13;;
30770;SDS011;17502;51.698;-0.292;2022-09-09T13:49:28;1.00;;;0.70;;
30770;SDS011;17502;51.698;-0.292;2022-09-09T13:52:03;2.42;;;1.33;;
30770;SDS011;17502;51.698;-0.292;2022-09-09T13:54:31;2.90;;;1.25;;
30770;SDS011;17502;51.698;-0.292;2022-09-09T13:56:57;1.10;;;0.82;;
30770;SDS011;17502;51.698;-0.292;2022-09-09T13:59:23;0.68;;;0.68;;
30770;SDS011;17502;51.698;-0.292;2022-09-09T14:01:49;1.23;;;1.10;;
30770;SDS011;17502;51.698;-0.292;2022-09-09T14:04:17;1.05;;;0.75;;
30770;SDS011;17502;51.698;-0.292;2022-09-09T14:06:43;1.20;;;0.80;;
30770;SDS011;17502;51.698;-0.292;2022-09-09T14:09:10;0.63;;;0.63;;
30770;SDS011;17502;51.698;-0.292;2022-09-09T14:11:37;0.60;;;0.57;;
30770;SDS011;17502;51.698;-0.292;2022-09-09T14:14:03;1.38;;;1.00;;
30770;SDS011;17502;51.698;-0.292;2022-09-09T14:16:30;1.95;;;0.70;;
30770;SDS011;17502;51.698;-0.292;2022-09-09T14:18:56;2.90;;;0.98;;
30770;SDS011;17502;51.698;-0.292;2022-09-09T14:21:22;1.92;;;1.50;;
30770;SDS011;17502;51.698;-0.292;2022-09-09T14:23:48;1.52;;;0.90;;
30770;SDS011;17502;51.698;-0.292;2022-09-09T14:26:14;1.02;;;0.85;;
30770;SDS011;17502;51.698;-0.292;2022-09-09T14:28:41;5.80;;;1.15;;
30770;SDS011;17502;51.698;-0.292;2022-09-09T14:31:07;1.80;;;0.80;;
30770;SDS011;17502;51.698;-0.292;2022-09-09T14:33:35;1.40;;;1.27;;
30770;SDS011;17502;51.698;-0.292;2022-09-09T14:36:02;2.25;;;1.13;;
30770;SDS011;17502;51.698;-0.292;2022-09-09T14:38:29;7.72;;;1.25;;
30770;SDS011;17502;51.698;-0.292;2022-09-09T14:40:55;2.72;;;1.38;;
30770;SDS011;17502;51.698;-0.292;2022-09-09T14:43:21;2.55;;;1.20;;
30770;SDS011;17502;51.698;-0.292;2022-09-09T14:45:47;1.92;;;1.17;;
30770;SDS011;17502;51.698;-0.292;2022-09-09T14:48:16;1.13;;;0.88;;
30770;SDS011;17502;51.698;-0.292;2022-09-09T14:50:42;2.05;;;1.20;;
30770;SDS011;17502;51.698;-0.292;2022-09-09T14:53:08;5.45;;;1.30;;
30770;SDS011;17502;51.698;-0.292;2022-09-09T14:55:35;3.45;;;1.02;;
30770;SDS011;17502;51.698;-0.292;2022-09-09T14:58:01;8.60;;;1.13;;
30770;SDS011;17502;51.698;-0.292;2022-09-09T15:00:27;5.28;;;0.90;;
30770;SDS011;17502;51.698;-0.292;2022-09-09T15:02:53;1.90;;;1.20;;
30770;SDS011;17502;51.698;-0.292;2022-09-09T15:05:20;2.05;;;1.10;;
30770;SDS011;17502;51.698;-0.292;2022-09-09T15:07:46;3.13;;;1.33;;
30770;SDS011;17502;51.698;-0.292;2022-09-09T15:10:13;1.48;;;1.15;;
30770;SDS011;17502;51.698;-0.292;2022-09-09T15:12:40;2.05;;;0.77;;
30770;SDS011;17502;51.698;-0.292;2022-09-09T15:15:06;3.28;;;1.08;;
30770;SDS011;17502;51.698;-0.292;2022-09-09T15:17:33;1.00;;;0.90;;
30770;SDS011;17502;51.698;-0.292;2022-09-09T15:19:59;1.15;;;1.05;;
30770;SDS011;17502;51.698;-0.292;2022-09-09T15:22:25;2.95;;;1.27;;
30770;SDS011;17502;51.698;-0.292;2022-09-09T15:24:51;5.65;;;0.80;;
30770;SDS011;17502;51.698;-0.292;2022-09-09T15:27:17;1.02;;;0.90;;
30770;SDS011;17502;51.698;-0.292;2022-09-09T15:29:43;1.92;;;1.27;;
30770;SDS011;17502;51.698;-0.292;2022-09-09T15:32:09;7.72;;;0.95;;
30770;SDS011;17502;51.698;-0.292;2022-09-09T15:34:35;10.88;;;0.90;;
30770;SDS011;17502;51.698;-0.292;2022-09-09T15:37:01;1.23;;;0.88;;
30770;SDS011;17502;51.698;-0.292;2022-09-09T15:39:27;4.30;;;0.90;;
30770;SDS011;17502;51.698;-0.292;2022-09-09T15:41:53;1.48;;;0.88;;
30770;SDS011;17502;51.698;-0.292;2022-09-09T15:44:20;3.53;;;0.95;;
30770;SDS011;17502;51.698;-0.292;2022-09-09T15:46:50;1.85;;;1.05;;
30770;SDS011;17502;51.698;-0.292;2022-09-09T15:49:19;2.13;;;1.20;;
30770;SDS011;17502;51.698;-0.292;2022-09-09T15:51:51;4.82;;;1.40;;
30770;SDS011;17502;51.698;-0.292;2022-09-09T15:54:18;1.25;;;0.90;;
30770;SDS011;17502;51.698;-0.292;2022-09-09T15:56:46;2.15;;;1.23;;
30770;SDS011;17502;51.698;-0.292;2022-09-09T15:59:13;2.38;;;1.35;;
30770;SDS011;17502;51.698;-0.292;2022-09-09T16:01:40;1.27;;;0.95;;
30770;SDS011;17502;51.698;-0.292;2022-09-09T16:04:07;1.95;;;0.90;;
30770;SDS011;17502;51.698;-0.292;2022-09-09T16:06:33;3.83;;;0.82;;
30770;SDS011;17502;51.698;-0.292;2022-09-09T16:08:59;0.50;;;0.50;;
30770;SDS011;17502;51.698;-0.292;2022-09-09T16:11:29;0.60;;;0.45;;
30770;SDS011;17502;51.698;-0.292;2022-09-09T16:13:56;4.45;;;0.98;;
30770;SDS011;17502;51.698;-0.292;2022-09-09T16:16:23;2.42;;;0.80;;
30770;SDS011;17502;51.698;-0.292;2022-09-09T16:18:50;7.13;;;0.93;;
30770;SDS011;17502;51.698;-0.292;2022-09-09T16:21:21;1.45;;;0.75;;
30770;SDS011;17502;51.698;-0.292;2022-09-09T16:23:49;5.63;;;1.08;;
30770;SDS011;17502;51.698;-0.292;2022-09-09T16:26:16;0.63;;;0.55;;
30770;SDS011;17502;51.698;-0.292;2022-09-09T16:28:42;4.85;;;0.98;;
30770;SDS011;17502;51.698;-0.292;2022-09-09T16:31:10;2.72;;;0.77;;
30770;SDS011;17502;51.698;-0.292;2022-09-09T16:33:36;1.88;;;0.65;;
30770;SDS011;17502;51.698;-0.292;2022-09-09T16:36:06;2.78;;;1.35;;